NCAR-RAP Real-Time Weather Data

Output produced by METARs form (26 May 2022  09:03 UTC)
found at http://weather.rap.ucar.edu/surface/
 
KFAR 260753Z 36004KT 10SM CLR 05/03 A2991 RMK AO2 SLP131 T00500033
KFAR 260653Z 00000KT 10SM CLR 07/05 A2992 RMK AO2 SLP134 T00720050
KFAR 260553Z 00000KT 10SM CLR 08/05 A2993 RMK AO2 SLP138 T00830050 10167 20067 401890067 58001
KFAR 260453Z 08003KT 10SM CLR 08/04 A2993 RMK AO2 SLP138 T00780044
KFAR 260353Z AUTO 12004KT 10SM CLR 09/04 A2994 RMK AO2 SLP140 T00940044
KFAR 260253Z AUTO 12005KT 10SM CLR 11/04 A2993 RMK AO2 SLP139 T01060039 55003
KFAR 260153Z AUTO 11009KT 10SM CLR 13/04 A2993 RMK AO2 SLP137 T01330044
KFAR 260053Z AUTO 09011KT 10SM BKN060 16/04 A2994 RMK AO2 SLP140 T01560044
KFAR 252353Z AUTO 09012G18KT 10SM BKN050 BKN060 16/04 A2994 RMK AO2 SLP142 T01610044 10189 20156 58010
KFAR 252253Z AUTO 06006KT 10SM SCT070 16/04 A2996 RMK AO2 SLP147 T01610039
KFAR 252153Z 11008KT 10SM BKN055 OVC070 16/04 A2997 RMK AO2 SLP151 T01610039
KFAR 252053Z 11011KT 10SM OVC060 17/03 A2997 RMK AO2 SLP151 T01670033 58019
KFAR 251953Z 13009G16KT 10SM OVC060 17/04 A2999 RMK AO2 SLP158 T01670039
KFAR 251853Z 08013G20KT 10SM SCT055 SCT090 18/04 A3002 RMK AO2 SLP167 T01830039
KFAR 251753Z 11013G18KT 10SM SCT055 18/04 A3003 RMK AO2 SLP171 T01830044 10183 20106 58017
KFAR 251653Z 14011G19KT 10SM CLR 17/05 A3005 RMK AO2 SLP177 T01720050
KFAR 251553Z 15012G19KT 10SM CLR 17/06 A3006 RMK AO2 SLP183 T01670056
KFAR 251453Z 16013KT 10SM FEW085 15/05 A3008 RMK AO2 SLP188 T01500050 53005
KFAR 251353Z 14005KT 10SM CLR 14/05 A3007 RMK AO2 SLP184 T01440050
KFAR 251253Z 12007KT 10SM CLR 13/06 A3006 RMK AO2 SLP182 T01330056
KFAR 251153Z 00000KT 10SM CLR 11/05 A3007 RMK AO2 SLP184 T01060050 10122 20094 55004
KFAR 251053Z 09003KT 10SM CLR 10/06 A3006 RMK AO2 SLP182 T01000056
KFAR 250953Z 09004KT 10SM CLR 09/06 A3006 RMK AO2 SLP182 T00940056
KFAR 250853Z 08003KT 10SM FEW085 11/06 A3008 RMK AO2 SLP187 T01060056 58005
KFAR 250753Z AUTO 11004KT 10SM CLR 11/05 A3010 RMK AO2 SLP193 T01060050
KFAR 250653Z 11003KT 10SM CLR 11/05 A3009 RMK AO2 SLP192 T01110050
KFAR 250553Z 10004KT 10SM CLR 12/06 A3009 RMK AO2 SLP192 T01170056 10194 20117 402170067 58004
KFAR 250453Z 11005KT 10SM CLR 13/04 A3011 RMK AO2 SLP198 T01280039
KFAR 250353Z 09006KT 10SM CLR 13/05 A3011 RMK AO2 SLP196 T01330050
KFAR 250253Z 08005KT 10SM CLR 12/06 A3011 RMK AO2 SLP198 T01220056 53004
KFAR 250153Z 10004KT 10SM CLR 16/03 A3010 RMK AO2 SLP195 T01610033
KFAR 250053Z 15005KT 10SM OVC110 18/02 A3010 RMK AO2 SLP194 T01830022
KFAR 242353Z 16009KT 10SM SCT120 19/02 A3010 RMK AO2 SLP194 T01890022 10217 20189 55005
KFAR 242253Z AUTO 13010G15KT 10SM BKN080 BKN100 19/02 A3010 RMK AO2 SLP194 T01940022
KFAR 242153Z 18006KT 10SM OVC100 19/02 A3010 RMK AO2 SLP195 T01940017
KFAR 242053Z 20009KT 10SM BKN110 21/02 A3011 RMK AO2 SLP200 T02060022 56011
KFAR 241953Z 19012G19KT 10SM BKN100 21/02 A3012 RMK AO2 SLP201 T02060022
KFAR 241853Z 17013G19KT 10SM SCT070 21/03 A3013 RMK AO2 SLP205 T02060033
KFAR 241753Z 18009G17KT 10SM SCT065 BKN085 20/04 A3015 RMK AO2 SLP210 T02000039 10200 20100 58003
KFAR 241653Z 21010G17KT 10SM FEW050 19/06 A3015 RMK AO2 SLP213 T01890056
KFAR 241553Z 22007KT 10SM CLR 18/06 A3016 RMK AO2 SLP214 T01780061
KFAR 241453Z 19006KT 10SM CLR 17/07 A3016 RMK AO2 SLP215 T01670067 50003
KFAR 241353Z 16005KT 10SM CLR 14/07 A3016 RMK AO2 SLP214 T01390072
KFAR 241253Z 15006KT 10SM CLR 12/07 A3016 RMK AO2 SLP214 T01220072
KFAR 241153Z 15005KT 10SM CLR 10/07 A3015 RMK AO2 SLP210 70004 T01000072 10111 20067 50003
KFAR 241053Z 17006KT 10SM CLR 08/06 A3015 RMK AO2 SLP212 T00830061
KFAR 240953Z 16005KT 10SM CLR 08/06 A3014 RMK AO2 SLP210 T00780056